Time;durP1;ratioP1;P1;durP2;ratioP2;P2;SDS_P1;SDS_P2;PMS_P1;PMS_P2;Temp;Humidity;BMP_temperature;BMP_pressure;BME280_temperature;BME280_humidity;BME280_pressure;Samples;Min_cycle;Max_cycle;Signal;HPM_P1;HPM_P2
2022/04/27 00:02:10;;;;;;;7.87;4.05;;;;;;;12.28;68.85;99835.63;4405806;32;34736;-82
2022/04/27 00:04:38;;;;;;;9.77;4.30;;;;;;;12.59;66.02;99827.25;4407315;32;32626;-85
2022/04/27 00:07:07;;;;;;;6.85;3.95;;;;;;;13.30;62.64;99832.41;4421958;32;34495;-85
2022/04/27 00:09:35;;;;;;;7.53;4.70;;;;;;;14.34;59.60;99829.69;4404298;32;34331;-84
2022/04/27 00:12:03;;;;;;;9.63;5.85;;;;;;;14.77;57.71;99828.34;4418893;32;34210;-83
2022/04/27 00:14:32;;;;;;;11.15;6.12;;;;;;;14.04;59.83;99837.41;4421297;32;33672;-84
2022/04/27 00:17:00;;;;;;;8.60;5.37;;;;;;;14.35;58.77;99839.25;4412481;32;34658;-83
2022/04/27 00:19:28;;;;;;;11.45;6.07;;;;;;;13.98;59.39;99842.44;4422432;32;34716;-83
2022/04/27 00:21:56;;;;;;;11.02;6.00;;;;;;;13.26;61.07;99843.53;4408448;32;33182;-83
2022/04/27 00:24:23;;;;;;;12.32;6.12;;;;;;;12.99;61.68;99849.50;4408295;32;31182;-84
2022/04/27 00:26:51;;;;;;;11.80;6.30;;;;;;;12.79;61.87;99847.09;4419542;32;34635;-83
2022/04/27 00:29:19;;;;;;;10.05;6.30;;;;;;;13.05;61.11;99844.53;4408869;32;31791;-83
2022/04/27 00:31:47;;;;;;;10.40;6.22;;;;;;;13.36;58.76;99845.62;4420457;32;32749;-84
2022/04/27 00:34:14;;;;;;;11.68;5.53;;;;;;;14.08;57.74;99839.28;4398519;32;33579;-84
2022/04/27 00:36:42;;;;;;;12.30;5.30;;;;;;;14.89;55.54;99841.75;4408958;32;32431;-83
2022/04/27 00:39:10;;;;;;;9.35;5.45;;;;;;;15.43;53.86;99848.41;4414488;32;33859;-84
2022/04/27 00:41:38;;;;;;;10.48;6.40;;;;;;;15.10;55.06;99849.28;4418478;32;34011;-85
2022/04/27 00:44:06;;;;;;;11.30;5.85;;;;;;;14.94;55.66;99847.06;4393934;32;33108;-84
2022/04/27 00:46:34;;;;;;;10.45;6.20;;;;;;;15.02;54.43;99856.00;4420988;32;34606;-83
2022/04/27 00:49:02;;;;;;;11.73;6.85;;;;;;;14.32;57.07;99855.69;4422144;32;34712;-83
2022/04/27 00:51:30;;;;;;;11.68;6.70;;;;;;;13.63;59.11;99860.41;4421560;32;34828;-84
2022/04/27 00:53:59;;;;;;;12.90;7.15;;;;;;;14.16;58.41;99861.28;4396789;32;33660;-85
2022/04/27 00:56:28;;;;;;;12.82;8.00;;;;;;;13.61;60.63;99862.06;4404579;32;32800;-83
2022/04/27 00:58:55;;;;;;;12.27;7.62;;;;;;;13.37;61.26;99865.63;4409253;32;33110;-84
2022/04/27 01:01:23;;;;;;;11.85;7.50;;;;;;;13.21;62.11;99865.88;4412279;32;32876;-84
2022/04/27 01:03:51;;;;;;;12.65;7.65;;;;;;;13.45;61.57;99866.75;4419687;32;31235;-85
2022/04/27 01:06:21;;;;;;;11.98;7.15;;;;;;;13.59;61.86;99864.63;4419011;32;31904;-84
2022/04/27 01:08:48;;;;;;;15.07;8.18;;;;;;;13.49;62.97;99862.56;4419955;32;33785;-84
2022/04/27 01:11:16;;;;;;;14.02;7.32;;;;;;;13.24;63.65;99859.06;4420521;32;33587;-83
2022/04/27 01:13:45;;;;;;;12.88;7.47;;;;;;;13.88;62.34;99860.38;4407224;32;31752;-83
2022/04/27 01:16:13;;;;;;;12.05;7.03;;;;;;;14.48;60.59;99862.22;4416668;32;33833;-84
2022/04/27 01:18:42;;;;;;;14.15;8.18;;;;;;;14.71;59.37;99855.13;4419481;32;33852;-83
2022/04/27 01:21:11;;;;;;;13.23;7.93;;;;;;;13.61;63.27;99864.69;4395806;32;32605;-84
2022/04/27 01:23:40;;;;;;;14.68;8.10;;;;;;;14.11;61.79;99860.22;4408293;32;32674;-84
2022/04/27 01:26:08;;;;;;;15.93;8.02;;;;;;;13.95;62.82;99869.28;4408718;32;32807;-84
2022/04/27 01:28:37;;;;;;;15.60;7.85;;;;;;;13.75;63.96;99866.91;4420067;32;33472;-83
2022/04/27 01:31:10;;;;;;;14.77;8.10;;;;;;;14.06;63.51;99872.22;4405652;32;33285;-85
2022/04/27 01:33:39;;;;;;;18.23;9.38;;;;;;;14.31;63.41;99869.56;4413190;32;33580;-84
2022/04/27 01:36:13;;;;;;;15.32;9.02;;;;;;;14.30;64.31;99873.00;4414428;32;33862;-84
2022/04/27 01:38:43;;;;;;;15.80;9.65;;;;;;;13.40;68.15;99881.31;4399106;32;31993;-85
2022/04/27 01:41:11;;;;;;;14.05;8.75;;;;;;;13.39;68.61;99886.50;4392415;32;32259;-85
2022/04/27 01:43:38;;;;;;;17.92;9.48;;;;;;;12.95;71.08;99894.44;4399699;32;32959;-84
2022/04/27 01:46:07;;;;;;;16.23;9.57;;;;;;;12.39;74.38;99917.44;4420451;32;32140;-85
2022/04/27 01:48:34;;;;;;;16.35;9.40;;;;;;;11.81;76.59;99915.94;4404651;32;31160;-85
2022/04/27 01:51:02;;;;;;;20.90;10.68;;;;;;;11.66;76.58;99920.50;4402410;32;32576;-83
2022/04/27 01:56:17;;;;;;;14.50;8.90;;;;;;;12.02;76.13;99920.28;4409283;32;33179;-85
2022/04/27 01:58:45;;;;;;;17.83;8.98;;;;;;;12.53;73.49;99913.66;4396500;32;33028;-84
2022/04/27 02:01:13;;;;;;;15.65;9.18;;;;;;;13.53;69.16;99906.94;4417107;32;35039;-85
2022/04/27 02:03:41;;;;;;;14.98;9.30;;;;;;;14.42;66.19;99908.09;4402221;32;31931;-84
2022/04/27 02:06:10;;;;;;;16.75;10.45;;;;;;;13.02;70.72;99906.84;4417363;32;32317;-84
2022/04/27 02:08:37;;;;;;;16.17;10.23;;;;;;;12.20;75.84;99915.81;4455442;27;33125;-61
2022/04/27 02:11:05;;;;;;;18.48;10.60;;;;;;;12.01;77.59;99909.00;4462885;32;34627;-61
2022/04/27 02:13:33;;;;;;;16.62;9.60;;;;;;;13.65;70.37;99884.78;4464683;32;33601;-61
2022/04/27 02:16:01;;;;;;;16.58;9.68;;;;;;;14.24;67.06;99895.37;4445317;32;33447;-61
2022/04/27 02:18:29;;;;;;;16.70;9.25;;;;;;;14.50;65.40;99884.00;4472824;32;33447;-61
2022/04/27 02:20:57;;;;;;;14.45;9.25;;;;;;;14.38;66.45;99885.38;4468777;32;34386;-61
2022/04/27 02:23:25;;;;;;;16.27;10.18;;;;;;;14.16;67.36;99884.72;4470142;32;34723;-61
2022/04/27 02:25:55;;;;;;;16.10;9.30;;;;;;;14.01;67.68;99873.81;4462419;32;34761;-61
2022/04/27 02:28:23;;;;;;;16.62;9.85;;;;;;;14.55;66.46;99873.75;4470549;32;34093;-61
2022/04/27 02:30:51;;;;;;;15.98;9.52;;;;;;;13.79;68.83;99867.00;4467719;32;34789;-61
2022/04/27 02:33:19;;;;;;;16.08;9.32;;;;;;;14.00;67.07;99872.91;4468503;32;33785;-61
2022/04/27 02:35:46;;;;;;;17.17;8.60;;;;;;;13.90;66.39;99865.63;4468703;32;33880;-61
2022/04/27 02:38:14;;;;;;;14.80;8.75;;;;;;;14.27;65.29;99874.62;4476302;32;33974;-61
2022/04/27 02:40:42;;;;;;;14.45;9.20;;;;;;;13.61;68.67;99867.28;4467707;32;34686;-61
2022/04/27 02:43:09;;;;;;;14.25;8.77;;;;;;;13.59;68.94;99867.22;4468176;32;33937;-61
2022/04/27 02:45:37;;;;;;;17.05;10.02;;;;;;;12.42;75.30;99869.91;4467914;32;33910;-61
2022/04/27 02:48:06;;;;;;;15.48;9.52;;;;;;;11.86;79.34;99882.38;4473986;32;33957;-61
2022/04/27 02:53:20;;;;;;;17.00;9.05;;;;;;;13.94;68.92;99857.09;4456260;32;34369;-61
2022/04/27 02:55:47;;;;;;;15.55;9.00;;;;;;;14.08;68.21;99853.22;4474467;32;33833;-61
2022/04/27 02:58:15;;;;;;;13.95;8.57;;;;;;;14.12;67.72;99849.00;4473947;32;33953;-61
2022/04/27 03:00:47;;;;;;;15.48;8.70;;;;;;;13.60;69.29;99862.91;4472970;32;34266;-61
2022/04/27 03:03:15;;;;;;;15.40;8.93;;;;;;;13.64;67.91;99854.38;4470823;32;33361;-61
2022/04/27 03:05:44;;;;;;;14.40;8.70;;;;;;;14.12;66.20;99856.81;4470905;32;34680;-61
2022/04/27 03:08:11;;;;;;;14.48;8.38;;;;;;;13.94;66.52;99863.16;4472489;32;34020;-61
2022/04/27 03:10:39;;;;;;;15.98;9.57;;;;;;;13.09;70.50;99859.41;4469329;32;34164;-61
2022/04/27 03:13:08;;;;;;;15.65;10.45;;;;;;;12.24;75.70;99870.97;4466883;32;33231;-61
2022/04/27 03:15:35;;;;;;;18.87;10.90;;;;;;;11.51;80.86;99868.84;4461275;32;34639;-61
2022/04/27 03:18:21;;;;;;;18.92;11.15;;;;;;;11.26;83.24;99877.28;4471676;32;34815;-61
2022/04/27 03:20:50;;;;;;;22.00;12.20;;;;;;;11.07;85.11;99873.91;4478305;32;34695;-61
2022/04/27 03:23:17;;;;;;;22.08;12.50;;;;;;;11.05;86.50;99879.81;4475987;32;33832;-61
2022/04/27 03:25:46;;;;;;;20.52;11.93;;;;;;;11.15;86.17;99880.31;4465187;32;33622;-61
2022/04/27 03:28:14;;;;;;;21.98;12.37;;;;;;;11.25;85.32;99884.19;4469606;32;33858;-61
2022/04/27 03:30:41;;;;;;;19.48;11.82;;;;;;;11.28;84.69;99881.75;4458314;32;34915;-61
2022/04/27 03:33:09;;;;;;;19.80;10.85;;;;;;;11.77;82.50;99893.28;4469769;32;33632;-61
2022/04/27 03:35:37;;;;;;;19.80;10.60;;;;;;;12.88;76.93;99884.63;4462995;32;34780;-61
2022/04/27 03:38:07;;;;;;;15.50;8.95;;;;;;;13.11;75.34;99886.34;4478206;32;33990;-61
2022/04/27 03:40:36;;;;;;;16.80;9.52;;;;;;;13.69;72.04;99882.31;4470293;32;34101;-61
2022/04/27 03:43:04;;;;;;;17.77;10.48;;;;;;;13.87;70.60;99889.88;4461653;32;33541;-61
2022/04/27 03:45:31;;;;;;;16.05;10.18;;;;;;;14.17;69.22;99886.47;4470776;32;34066;-61
2022/04/27 03:48:02;;;;;;;18.05;10.70;;;;;;;12.48;76.51;99896.16;4472842;32;32999;-61
2022/04/27 03:50:30;;;;;;;17.92;11.05;;;;;;;11.68;81.47;99900.69;4455255;32;34142;-61
2022/04/27 03:52:58;;;;;;;21.15;11.48;;;;;;;11.24;83.84;99894.47;4461471;32;34256;-61
2022/04/27 03:55:28;;;;;;;20.25;11.40;;;;;;;11.14;84.77;99911.34;4449666;32;32195;-61
2022/04/27 03:57:57;;;;;;;18.98;11.10;;;;;;;11.74;82.10;99906.12;4466027;32;34462;-61
2022/04/27 04:00:25;;;;;;;17.62;9.98;;;;;;;12.64;77.04;99902.81;4469686;32;34054;-61
2022/04/27 04:02:53;;;;;;;15.93;10.20;;;;;;;12.96;75.62;99897.09;4465775;32;33915;-61
2022/04/27 04:05:22;;;;;;;18.50;10.40;;;;;;;13.33;73.51;99898.44;4472035;32;34038;-61
2022/04/27 04:07:49;;;;;;;17.70;10.43;;;;;;;13.62;71.75;99903.78;4477324;32;34510;-61
2022/04/27 04:10:17;;;;;;;18.60;10.00;;;;;;;13.54;71.88;99907.81;4460077;32;33703;-61
2022/04/27 04:12:45;;;;;;;20.60;10.05;;;;;;;13.38;72.40;99914.22;4472477;32;33678;-61
2022/04/27 04:15:13;;;;;;;20.52;10.40;;;;;;;13.28;72.95;99919.91;4468980;32;33960;-61
2022/04/27 04:17:45;;;;;;;17.17;10.27;;;;;;;12.73;75.59;99927.44;4469332;32;31798;-61
2022/04/27 04:20:19;;;;;;;21.58;11.18;;;;;;;12.96;75.45;99927.41;4470822;31;34900;-61
2022/04/27 04:22:47;;;;;;;20.08;10.98;;;;;;;11.73;80.65;99928.59;4473544;32;34434;-61
2022/04/27 04:30:47;;;;;;;17.23;10.27;;;;;;;12.00;79.24;99934.09;4472557;32;34711;-61
2022/04/27 04:33:16;;;;;;;17.08;10.52;;;;;;;12.31;78.17;99939.66;4469875;32;33719;-61
2022/04/27 04:35:44;;;;;;;18.08;10.25;;;;;;;12.87;75.35;99942.69;4469891;32;33608;-61
2022/04/27 04:38:12;;;;;;;20.75;10.10;;;;;;;13.12;74.37;99942.75;4469306;32;34700;-61
2022/04/27 04:40:40;;;;;;;17.55;10.35;;;;;;;11.91;79.97;99954.47;4469990;32;34974;-61
2022/04/27 04:43:09;;;;;;;19.25;10.90;;;;;;;11.92;79.95;99956.25;4470374;32;33792;-61
2022/04/27 04:45:38;;;;;;;16.60;10.40;;;;;;;13.18;75.03;99948.16;4462635;32;33343;-61
2022/04/27 04:48:08;;;;;;;21.60;11.15;;;;;;;13.18;73.87;99942.97;4465321;32;33872;-61
2022/04/27 04:50:39;;;;;;;16.45;10.13;;;;;;;13.54;72.16;99944.25;4470380;32;33808;-61
2022/04/27 04:53:07;;;;;;;16.62;10.05;;;;;;;13.67;71.89;99950.78;4462326;32;33698;-61
2022/04/27 04:55:36;;;;;;;18.30;11.30;;;;;;;13.79;71.48;99946.00;4459954;32;33813;-61
2022/04/27 04:58:04;;;;;;;18.75;10.45;;;;;;;13.35;73.30;99953.16;4469972;32;34785;-61
2022/04/27 05:00:32;;;;;;;18.20;10.90;;;;;;;13.53;72.72;99948.59;4457256;32;34111;-61
2022/04/27 05:03:00;;;;;;;17.00;10.55;;;;;;;13.69;72.12;99950.00;4441153;32;34340;-61
2022/04/27 05:05:28;;;;;;;16.40;10.77;;;;;;;13.82;71.71;99948.72;4452281;32;33738;-61
2022/04/27 05:07:57;;;;;;;15.40;10.65;;;;;;;13.88;71.45;99956.72;4465853;32;32457;-61
2022/04/27 05:10:25;;;;;;;21.20;11.43;;;;;;;14.02;71.35;99958.91;4462667;32;34354;-61
2022/04/27 05:12:53;;;;;;;16.75;10.73;;;;;;;13.55;73.81;99964.25;4465815;32;33211;-61
2022/04/27 05:15:21;;;;;;;20.33;12.27;;;;;;;13.02;75.65;99970.94;4458147;32;33737;-61
2022/04/27 05:17:50;;;;;;;18.77;11.52;;;;;;;12.21;79.90;99974.75;4460315;32;34456;-61
2022/04/27 05:20:19;;;;;;;20.17;11.93;;;;;;;12.15;80.47;99983.16;4459747;32;34213;-62
2022/04/27 05:22:48;;;;;;;17.37;11.32;;;;;;;13.63;74.35;99974.94;4463653;32;34450;-61
2022/04/27 05:25:16;;;;;;;17.40;10.57;;;;;;;13.89;73.22;99973.25;4459591;32;34488;-61
2022/04/27 05:27:48;;;;;;;15.18;9.77;;;;;;;14.64;70.43;99977.44;4463220;32;34542;-62
2022/04/27 05:33:04;;;;;;;16.30;9.75;;;;;;;15.06;67.39;99975.22;4460742;32;33583;-61
2022/04/27 05:35:41;;;;;;;14.60;9.45;;;;;;;14.91;66.51;99974.78;4461798;32;33831;-61
2022/04/27 05:38:10;;;;;;;15.95;9.25;;;;;;;15.31;65.72;99973.34;4473327;32;34059;-61
2022/04/27 05:40:41;;;;;;;13.70;9.38;;;;;;;14.95;66.74;99976.66;4451310;32;34794;-61
2022/04/27 05:43:10;;;;;;;15.43;9.57;;;;;;;14.96;66.76;99981.03;4473052;32;33182;-61
2022/04/27 05:45:39;;;;;;;15.88;10.05;;;;;;;14.15;70.40;99990.62;4475914;32;34652;-61
2022/04/27 05:48:07;;;;;;;18.00;10.65;;;;;;;13.33;72.77;99997.31;4467785;32;33864;-61
2022/04/27 05:50:36;;;;;;;15.82;8.73;;;;;;;13.75;71.49;99997.09;4468708;32;34354;-61
2022/04/27 05:53:04;;;;;;;18.25;9.45;;;;;;;14.85;67.07;99995.47;4459027;32;34337;-61
2022/04/27 05:55:43;;;;;;;14.57;8.27;;;;;;;15.30;64.36;99995.06;4471115;31;33714;-61
2022/04/27 05:58:11;;;;;;;14.65;8.82;;;;;;;16.06;61.21;99992.81;4463795;32;33956;-61
2022/04/27 06:00:46;;;;;;;14.00;8.35;;;;;;;15.82;60.78;99999.16;4463995;32;34070;-62
2022/04/27 06:03:15;;;;;;;14.27;8.50;;;;;;;15.83;60.38;99995.69;4463794;32;33309;-62
2022/04/27 06:05:43;;;;;;;13.70;8.27;;;;;;;15.71;61.06;99995.34;4466392;32;33571;-62
2022/04/27 06:08:15;;;;;;;13.73;8.13;;;;;;;15.12;62.38;99998.91;4473480;32;34612;-62
2022/04/27 06:10:44;;;;;;;11.82;7.28;;;;;;;15.02;63.99;99996.84;4465529;32;34933;-62
2022/04/27 06:13:13;;;;;;;12.55;7.85;;;;;;;16.02;60.96;100006.63;4448167;32;33220;-62
2022/04/27 06:15:43;;;;;;;14.98;8.02;;;;;;;16.29;59.35;99999.50;4464158;32;33672;-62
2022/04/27 06:18:12;;;;;;;13.30;8.18;;;;;;;16.01;59.10;100007.47;4465915;32;33627;-61
2022/04/27 06:20:40;;;;;;;13.07;7.40;;;;;;;15.68;60.05;100010.91;4469248;32;34100;-62
2022/04/27 06:23:14;;;;;;;12.45;7.70;;;;;;;15.61;60.26;100014.22;4451361;32;32801;-61
2022/04/27 06:25:47;;;;;;;12.13;7.70;;;;;;;15.68;59.70;100018.75;4455593;32;34347;-62
2022/04/27 06:28:16;;;;;;;13.85;7.60;;;;;;;16.54;56.43;100018.41;4470326;32;33672;-62
2022/04/27 06:30:43;;;;;;;13.20;8.35;;;;;;;15.58;58.53;100019.34;4467782;32;34828;-61
2022/04/27 06:33:12;;;;;;;12.65;8.18;;;;;;;15.62;58.48;100021.19;4455943;32;33334;-60
2022/04/27 06:35:41;;;;;;;13.07;7.57;;;;;;;15.37;58.67;100020.50;4464247;32;33856;-60
2022/04/27 06:38:09;;;;;;;16.62;8.45;;;;;;;15.49;59.92;100027.78;4462709;32;33979;-61
2022/04/27 06:40:58;;;;;;;13.82;8.65;;;;;;;16.38;56.44;100030.22;4463606;32;34147;-61
2022/04/27 06:43:28;;;;;;;12.37;7.78;;;;;;;16.49;55.86;100025.22;4475138;32;33103;-61
2022/04/27 06:46:05;;;;;;;14.48;8.57;;;;;;;16.58;53.91;100030.69;4470380;32;34607;-62
2022/04/27 06:48:47;;;;;;;14.90;9.70;;;;;;;16.12;55.62;100026.94;4468017;32;32953;-61
2022/04/27 06:51:25;;;;;;;17.60;10.10;;;;;;;15.24;62.77;100034.03;4461752;32;34036;-62
2022/04/27 06:53:57;;;;;;;15.13;10.48;;;;;;;15.46;63.10;100036.44;4468415;32;33460;-61
2022/04/27 06:56:28;;;;;;;20.62;11.95;;;;;;;13.82;69.29;100042.44;4473102;32;32979;-62
2022/04/27 06:58:56;;;;;;;19.50;11.90;;;;;;;13.36;70.78;100049.44;4465201;32;33487;-62
2022/04/27 07:01:26;;;;;;;17.83;11.15;;;;;;;14.49;68.10;100048.19;4469942;32;34807;-60
2022/04/27 07:03:55;;;;;;;21.30;12.77;;;;;;;14.44;67.34;100047.16;4476372;32;33657;-61
2022/04/27 07:06:23;;;;;;;20.50;11.93;;;;;;;13.34;72.49;100050.22;4455366;32;33817;-61
2022/04/27 07:08:54;;;;;;;18.48;11.75;;;;;;;13.66;70.68;100047.94;4457775;32;32039;-60
2022/04/27 07:11:22;;;;;;;23.67;13.05;;;;;;;13.78;69.88;100048.38;4456459;32;34673;-63
2022/04/27 07:13:49;;;;;;;20.62;12.63;;;;;;;13.20;73.00;100061.81;4469669;32;33748;-60
2022/04/27 07:16:18;;;;;;;19.73;12.52;;;;;;;13.09;73.53;100066.59;4473976;32;34067;-61
2022/04/27 07:18:45;;;;;;;25.25;14.32;;;;;;;13.30;73.24;100058.75;4471607;32;34147;-61
2022/04/27 07:21:13;;;;;;;21.67;12.93;;;;;;;14.14;70.19;100064.41;4468204;32;34078;-60
2022/04/27 07:23:40;;;;;;;20.08;12.55;;;;;;;14.78;68.70;100063.94;4470523;32;33406;-62
2022/04/27 07:26:08;;;;;;;22.05;13.13;;;;;;;13.35;72.31;100063.31;4481235;32;33769;-63
2022/04/27 07:28:36;;;;;;;22.92;13.73;;;;;;;13.51;71.99;100056.94;4458604;32;33307;-62
2022/04/27 07:31:05;;;;;;;23.60;12.73;;;;;;;13.01;73.79;100071.47;4470509;32;34816;-63
2022/04/27 07:33:34;;;;;;;22.13;13.23;;;;;;;13.96;71.81;100059.44;4462838;32;33520;-61
2022/04/27 07:36:01;;;;;;;18.85;12.98;;;;;;;14.89;67.75;100066.03;4457658;32;34252;-62
2022/04/27 07:38:29;;;;;;;19.92;13.07;;;;;;;13.70;72.00;100070.66;4461360;32;33673;-61
2022/04/27 07:40:57;;;;;;;23.12;12.75;;;;;;;13.49;72.18;100075.94;4475544;32;33894;-61
2022/04/27 07:43:24;;;;;;;21.92;13.57;;;;;;;13.50;73.14;100078.59;4456408;32;32299;-61
2022/04/27 07:45:52;;;;;;;20.10;13.70;;;;;;;12.98;73.96;100081.78;4469985;32;33904;-61
2022/04/27 07:48:19;;;;;;;21.37;14.45;;;;;;;13.02;74.92;100078.47;4467835;32;33573;-61
2022/04/27 07:50:47;;;;;;;21.45;13.32;;;;;;;13.50;74.28;100077.69;4466066;32;33900;-61
2022/04/27 07:53:15;;;;;;;19.92;12.82;;;;;;;13.75;72.40;100079.50;4468141;32;34202;-61
2022/04/27 07:55:42;;;;;;;20.95;13.50;;;;;;;14.24;70.66;100081.25;4462765;32;33498;-61
2022/04/27 07:58:10;;;;;;;20.00;13.10;;;;;;;13.62;72.30;100079.88;4465868;32;34698;-61
2022/04/27 08:00:38;;;;;;;20.27;13.02;;;;;;;13.81;72.62;100084.94;4448477;32;33919;-61
2022/04/27 08:03:06;;;;;;;21.62;12.30;;;;;;;15.07;65.82;100083.97;4459411;32;33752;-61
2022/04/27 08:05:34;;;;;;;17.45;10.85;;;;;;;15.46;65.34;100082.53;4460379;32;33972;-61
2022/04/27 08:08:01;;;;;;;18.75;11.32;;;;;;;15.54;64.48;100081.91;4461848;32;33948;-61
2022/04/27 08:10:29;;;;;;;18.67;11.57;;;;;;;15.61;63.50;100082.97;4466917;32;34150;-61
2022/04/27 08:12:57;;;;;;;18.00;11.15;;;;;;;14.14;67.63;100084.37;4470040;32;33251;-61
2022/04/27 08:15:25;;;;;;;19.75;11.88;;;;;;;14.54;66.98;100086.62;4469949;32;34683;-61
2022/04/27 08:17:54;;;;;;;15.63;10.75;;;;;;;15.41;65.55;100090.22;4448019;32;33889;-61
2022/04/27 08:23:11;;;;;;;17.12;11.68;;;;;;;16.48;59.86;100088.84;4465121;32;33723;-61
2022/04/27 08:25:44;;;;;;;17.58;11.82;;;;;;;15.46;62.78;100101.69;4468628;32;33674;-61
2022/04/27 08:28:12;;;;;;;17.58;11.12;;;;;;;15.62;61.99;100091.69;4463908;32;34436;-61
2022/04/27 08:30:41;;;;;;;19.10;11.35;;;;;;;15.19;63.03;100103.47;4463351;32;34045;-61
2022/04/27 08:33:09;;;;;;;20.80;11.63;;;;;;;16.18;61.20;100092.41;4465740;32;34342;-61
2022/04/27 08:35:37;;;;;;;18.15;11.32;;;;;;;14.90;63.79;100100.81;4469880;32;34021;-61
2022/04/27 08:38:06;;;;;;;19.15;12.27;;;;;;;14.51;65.40;100109.09;4453102;32;33814;-62
2022/04/27 08:40:38;;;;;;;20.15;12.13;;;;;;;14.39;65.29;100111.25;4468712;32;34842;-61
2022/04/27 08:43:06;;;;;;;17.75;10.98;;;;;;;14.67;65.10;100111.37;4464680;32;33723;-61
2022/04/27 08:45:34;;;;;;;18.08;11.85;;;;;;;15.17;63.48;100107.75;4469108;32;34119;-61
2022/04/27 08:48:01;;;;;;;18.98;12.27;;;;;;;15.64;63.69;100103.06;4469273;32;34681;-61
2022/04/27 08:50:30;;;;;;;18.45;12.93;;;;;;;16.08;63.16;100098.25;4452985;32;35405;-61
2022/04/27 08:52:57;;;;;;;20.00;12.85;;;;;;;14.86;66.34;100098.97;4458250;32;33376;-61
2022/04/27 08:55:28;;;;;;;19.10;12.60;;;;;;;16.55;61.13;100095.97;4445008;32;33574;-61
2022/04/27 08:58:13;;;;;;;18.52;12.63;;;;;;;15.78;63.55;100099.19;4463585;32;34262;-61
2022/04/27 09:01:00;;;;;;;21.00;12.27;;;;;;;16.56;60.35;100095.16;4458832;32;33054;-61
2022/04/27 09:03:32;;;;;;;21.73;13.35;;;;;;;15.97;62.24;100094.44;4455686;32;34203;-60
2022/04/27 09:06:07;;;;;;;19.75;13.25;;;;;;;16.21;62.38;100091.63;4455274;32;33436;-61
2022/04/27 09:08:43;;;;;;;18.40;11.93;;;;;;;16.35;61.70;100094.59;4464921;32;34768;-61
2022/04/27 09:11:25;;;;;;;19.50;12.10;;;;;;;16.12;62.23;100094.87;4454147;32;33688;-61
2022/04/27 09:14:04;;;;;;;21.85;12.65;;;;;;;16.56;61.34;100099.50;4462428;32;33890;-61
2022/04/27 09:22:43;;;;;;;19.45;12.45;;;;;;;15.89;61.24;100102.94;4406178;32;34105;-61
2022/04/27 09:25:11;;;;;;;20.40;12.35;;;;;;;16.36;61.14;100092.03;4448835;32;33709;-61
2022/04/27 09:27:41;;;;;;;19.00;12.20;;;;;;;17.01;58.71;100094.53;4457905;32;33876;-61
2022/04/27 09:30:11;;;;;;;19.25;11.73;;;;;;;17.38;58.40;100095.34;4473309;32;33899;-61
2022/04/27 09:32:50;;;;;;;18.02;12.20;;;;;;;16.60;61.35;100097.00;4472548;32;34104;-61
2022/04/27 09:35:34;;;;;;;21.70;13.20;;;;;;;16.96;59.03;100100.50;4465768;32;33473;-61
2022/04/27 09:38:16;;;;;;;17.62;12.05;;;;;;;15.37;62.55;100098.78;4472155;32;33954;-60
2022/04/27 09:40:50;;;;;;;20.23;12.48;;;;;;;17.08;58.30;100096.44;4467320;32;33783;-61
2022/04/27 09:43:41;;;;;;;19.75;13.02;;;;;;;16.09;60.81;100094.81;4449866;32;34145;-62
2022/04/27 09:46:19;;;;;;;17.25;12.10;;;;;;;16.35;61.44;100089.38;4452556;32;33670;-60
2022/04/27 09:48:47;;;;;;;20.45;13.25;;;;;;;16.42;59.16;100099.16;4465903;32;34612;-60
2022/04/27 09:51:15;;;;;;;20.27;13.50;;;;;;;15.17;64.08;100097.31;4466143;32;33947;-60
2022/04/27 09:53:43;;;;;;;19.92;13.13;;;;;;;15.23;64.14;100095.78;4456558;32;34667;-60
2022/04/27 09:56:12;;;;;;;19.87;12.77;;;;;;;15.52;63.59;100094.03;4457557;32;33752;-61
2022/04/27 09:58:44;;;;;;;19.87;12.77;;;;;;;16.76;58.85;100097.38;4458333;32;34492;-61
2022/04/27 10:01:14;;;;;;;18.02;12.82;;;;;;;16.94;57.82;100090.03;4448053;32;34663;-60
2022/04/27 10:03:48;;;;;;;18.73;12.07;;;;;;;15.67;61.49;100097.94;4467632;32;32694;-60
2022/04/27 10:06:16;;;;;;;21.50;12.80;;;;;;;16.60;59.80;100091.75;4472532;32;33631;-61
2022/04/27 10:08:44;;;;;;;16.77;11.70;;;;;;;15.95;61.26;100096.12;4473230;32;33908;-60
2022/04/27 10:11:12;;;;;;;21.02;12.48;;;;;;;16.64;59.19;100092.72;4467270;32;33476;-62
2022/04/27 10:13:40;;;;;;;18.55;12.57;;;;;;;16.65;60.00;100095.38;4471586;32;34171;-62
2022/04/27 10:16:08;;;;;;;20.27;13.27;;;;;;;16.99;58.01;100096.22;4454727;32;34367;-61
2022/04/27 10:18:36;;;;;;;20.58;13.02;;;;;;;16.63;58.73;100106.62;4430675;32;34680;-62
2022/04/27 10:21:04;;;;;;;18.23;12.20;;;;;;;16.42;60.40;100102.66;4453907;32;34375;-61
2022/04/27 10:23:43;;;;;;;19.15;12.82;;;;;;;15.97;61.75;100107.50;4470172;32;33753;-61
2022/04/27 10:26:10;;;;;;;20.48;13.70;;;;;;;16.47;60.45;100105.37;4463246;32;33508;-62
2022/04/27 10:28:43;;;;;;;24.48;14.30;;;;;;;14.80;66.71;100114.41;4469602;32;33812;-59
2022/04/27 10:31:10;;;;;;;21.92;15.27;;;;;;;14.41;68.56;100122.63;4470266;32;33860;-61
2022/04/27 10:33:49;;;;;;;22.20;14.30;;;;;;;14.23;70.19;100115.94;4469182;32;35102;-62
2022/04/27 10:36:37;;;;;;;22.60;14.75;;;;;;;15.26;66.65;100118.47;4478688;32;33370;-62
2022/04/27 10:39:28;;;;;;;23.80;15.52;;;;;;;15.62;66.83;100116.06;4444931;32;33542;-60
2022/04/27 10:42:05;;;;;;;23.73;15.65;;;;;;;15.69;65.36;100120.66;4458414;32;33389;-61
2022/04/27 10:44:48;;;;;;;25.30;16.87;;;;;;;15.44;66.51;100121.66;4468754;32;34200;-60
2022/04/27 10:47:20;;;;;;;25.70;17.15;;;;;;;14.95;69.34;100122.75;4475111;31;33359;-60
2022/04/27 10:50:09;;;;;;;26.20;16.12;;;;;;;13.91;72.31;100118.28;4456974;32;33974;-60
2022/04/27 10:52:44;;;;;;;25.23;15.95;;;;;;;14.92;69.19;100114.81;4470181;32;33685;-61
2022/04/27 10:55:42;;;;;;;23.02;16.12;;;;;;;15.17;67.70;100120.81;4472494;32;32313;-60
2022/04/27 10:58:22;;;;;;;25.45;15.57;;;;;;;14.95;68.06;100120.12;4472874;32;33517;-61
2022/04/27 11:01:01;;;;;;;24.50;15.15;;;;;;;14.92;68.27;100109.59;4468355;31;34090;-60
2022/04/27 11:03:31;;;;;;;25.58;16.48;;;;;;;14.97;67.58;100113.25;4459630;32;33856;-60
2022/04/27 11:06:00;;;;;;;24.10;15.13;;;;;;;14.89;68.29;100119.91;4459358;32;34050;-61
2022/04/27 11:08:42;;;;;;;23.77;16.67;;;;;;;14.90;67.74;100121.69;4467260;32;33089;-62
2022/04/27 11:11:10;;;;;;;25.15;16.42;;;;;;;13.77;71.72;100124.69;4461480;32;35146;-62
2022/04/27 11:13:38;;;;;;;25.50;17.02;;;;;;;14.58;69.53;100124.09;4463527;32;33900;-61
2022/04/27 11:16:10;;;;;;;26.50;16.10;;;;;;;14.81;68.89;100122.25;4467041;32;34140;-63
2022/04/27 11:18:57;;;;;;;24.80;17.00;;;;;;;14.55;69.97;100119.66;4445735;32;33731;-60
2022/04/27 11:21:28;;;;;;;24.85;17.48;;;;;;;14.23;71.06;100126.34;4455409;32;33528;-61
2022/04/27 11:23:58;;;;;;;23.40;16.33;;;;;;;13.52;73.69;100133.28;4465759;32;33920;-61
2022/04/27 11:26:25;;;;;;;26.10;16.70;;;;;;;13.85;73.11;100130.19;4467368;32;34446;-60
2022/04/27 11:28:55;;;;;;;24.02;15.57;;;;;;;13.22;74.72;100138.19;4457525;32;33706;-60
2022/04/27 11:31:22;;;;;;;26.23;17.10;;;;;;;13.71;73.03;100124.47;4448264;32;34211;-60
2022/04/27 11:33:50;;;;;;;25.98;16.23;;;;;;;13.02;75.23;100130.47;4461870;32;33035;-61
2022/04/27 11:36:23;;;;;;;25.10;15.45;;;;;;;14.12;72.02;100122.50;4473582;32;34021;-60
2022/04/27 11:38:51;;;;;;;23.98;15.93;;;;;;;14.25;70.35;100129.91;4474867;32;33703;-60
2022/04/27 11:41:20;;;;;;;21.50;15.38;;;;;;;14.11;71.86;100136.34;4471612;32;34462;-61
2022/04/27 11:43:50;;;;;;;23.90;16.27;;;;;;;14.20;71.70;100122.75;4471217;32;33731;-61
2022/04/27 11:46:19;;;;;;;24.05;16.10;;;;;;;13.43;73.53;100135.56;4459432;32;33827;-60
2022/04/27 11:48:47;;;;;;;25.35;16.80;;;;;;;13.34;73.80;100133.47;4471013;32;33806;-60
2022/04/27 11:51:15;;;;;;;23.73;15.98;;;;;;;13.95;72.23;100135.78;4468462;32;33980;-62
2022/04/27 11:53:49;;;;;;;26.77;16.20;;;;;;;13.56;72.93;100141.28;4466488;32;33511;-61